sensor_id;sensor_type;location;lat;lon;timestamp;P1;durP1;ratioP1;P2;durP2;ratioP2
29214;SDS011;16252;49.816;7.964;2023-04-24T00:02:06;1.35;;;0.80;;
29214;SDS011;16252;49.816;7.964;2023-04-24T00:04:35;2.37;;;0.90;;
29214;SDS011;16252;49.816;7.964;2023-04-24T00:07:01;0.75;;;0.57;;
29214;SDS011;16252;49.816;7.964;2023-04-24T00:09:26;0.75;;;0.68;;
29214;SDS011;16252;49.816;7.964;2023-04-24T00:11:52;0.75;;;0.52;;
29214;SDS011;16252;49.816;7.964;2023-04-24T00:14:17;0.77;;;0.60;;
29214;SDS011;16252;49.816;7.964;2023-04-24T00:16:42;0.68;;;0.52;;
29214;SDS011;16252;49.816;7.964;2023-04-24T00:19:08;0.77;;;0.73;;
29214;SDS011;16252;49.816;7.964;2023-04-24T00:21:34;2.25;;;0.70;;
29214;SDS011;16252;49.816;7.964;2023-04-24T00:23:59;0.98;;;0.60;;
29214;SDS011;16252;49.816;7.964;2023-04-24T00:26:24;2.33;;;0.80;;
29214;SDS011;16252;49.816;7.964;2023-04-24T00:28:50;2.47;;;0.50;;
29214;SDS011;16252;49.816;7.964;2023-04-24T00:31:15;1.58;;;0.73;;
29214;SDS011;16252;49.816;7.964;2023-04-24T00:33:40;1.55;;;0.60;;
29214;SDS011;16252;49.816;7.964;2023-04-24T00:36:06;0.82;;;0.63;;
29214;SDS011;16252;49.816;7.964;2023-04-24T00:38:32;1.98;;;0.73;;
29214;SDS011;16252;49.816;7.964;2023-04-24T00:40:57;1.27;;;0.70;;
29214;SDS011;16252;49.816;7.964;2023-04-24T00:43:22;2.78;;;0.90;;
29214;SDS011;16252;49.816;7.964;2023-04-24T00:45:48;0.45;;;0.45;;
29214;SDS011;16252;49.816;7.964;2023-04-24T00:48:13;1.50;;;0.60;;
29214;SDS011;16252;49.816;7.964;2023-04-24T00:50:39;3.75;;;1.42;;
29214;SDS011;16252;49.816;7.964;2023-04-24T00:53:05;1.85;;;0.93;;
29214;SDS011;16252;49.816;7.964;2023-04-24T00:55:31;0.60;;;0.60;;
29214;SDS011;16252;49.816;7.964;2023-04-24T00:57:56;1.17;;;0.60;;
29214;SDS011;16252;49.816;7.964;2023-04-24T01:00:22;1.38;;;0.90;;
29214;SDS011;16252;49.816;7.964;2023-04-24T01:02:47;1.63;;;0.80;;
29214;SDS011;16252;49.816;7.964;2023-04-24T01:05:13;1.85;;;1.08;;
29214;SDS011;16252;49.816;7.964;2023-04-24T01:07:40;0.98;;;0.60;;
29214;SDS011;16252;49.816;7.964;2023-04-24T01:10:09;1.10;;;0.70;;
29214;SDS011;16252;49.816;7.964;2023-04-24T01:12:35;0.88;;;0.70;;
29214;SDS011;16252;49.816;7.964;2023-04-24T01:15:00;2.65;;;0.68;;
29214;SDS011;16252;49.816;7.964;2023-04-24T01:17:25;4.45;;;0.70;;
29214;SDS011;16252;49.816;7.964;2023-04-24T01:19:51;1.33;;;0.80;;
29214;SDS011;16252;49.816;7.964;2023-04-24T01:22:18;1.42;;;0.73;;
29214;SDS011;16252;49.816;7.964;2023-04-24T01:24:45;0.73;;;0.70;;
29214;SDS011;16252;49.816;7.964;2023-04-24T01:27:11;1.75;;;0.80;;
29214;SDS011;16252;49.816;7.964;2023-04-24T01:29:37;1.13;;;0.80;;
29214;SDS011;16252;49.816;7.964;2023-04-24T01:32:03;0.50;;;0.50;;
29214;SDS011;16252;49.816;7.964;2023-04-24T01:34:29;2.25;;;0.82;;
29214;SDS011;16252;49.816;7.964;2023-04-24T01:36:54;5.47;;;0.93;;
29214;SDS011;16252;49.816;7.964;2023-04-24T01:39:21;0.85;;;0.77;;
29214;SDS011;16252;49.816;7.964;2023-04-24T01:41:48;4.20;;;0.80;;
29214;SDS011;16252;49.816;7.964;2023-04-24T01:44:14;1.08;;;0.75;;
29214;SDS011;16252;49.816;7.964;2023-04-24T01:46:40;1.15;;;0.68;;
29214;SDS011;16252;49.816;7.964;2023-04-24T01:49:06;4.88;;;0.95;;
29214;SDS011;16252;49.816;7.964;2023-04-24T01:51:31;1.13;;;0.70;;
29214;SDS011;16252;49.816;7.964;2023-04-24T01:53:56;0.55;;;0.50;;
29214;SDS011;16252;49.816;7.964;2023-04-24T01:56:22;0.82;;;0.60;;
29214;SDS011;16252;49.816;7.964;2023-04-24T01:58:48;0.80;;;0.80;;
29214;SDS011;16252;49.816;7.964;2023-04-24T02:01:17;3.78;;;0.70;;
29214;SDS011;16252;49.816;7.964;2023-04-24T02:03:44;1.45;;;0.65;;
29214;SDS011;16252;49.816;7.964;2023-04-24T02:06:09;1.48;;;0.70;;
29214;SDS011;16252;49.816;7.964;2023-04-24T02:08:34;2.10;;;0.90;;
29214;SDS011;16252;49.816;7.964;2023-04-24T02:11:00;0.80;;;0.50;;
29214;SDS011;16252;49.816;7.964;2023-04-24T02:13:26;1.05;;;0.55;;
29214;SDS011;16252;49.816;7.964;2023-04-24T02:15:52;0.90;;;0.57;;
29214;SDS011;16252;49.816;7.964;2023-04-24T02:18:17;0.47;;;0.45;;
29214;SDS011;16252;49.816;7.964;2023-04-24T02:20:42;0.55;;;0.55;;
29214;SDS011;16252;49.816;7.964;2023-04-24T02:23:07;0.45;;;0.45;;
29214;SDS011;16252;49.816;7.964;2023-04-24T02:25:33;0.45;;;0.45;;
29214;SDS011;16252;49.816;7.964;2023-04-24T02:27:58;0.70;;;0.70;;
29214;SDS011;16252;49.816;7.964;2023-04-24T02:30:23;1.65;;;0.80;;
29214;SDS011;16252;49.816;7.964;2023-04-24T02:32:49;0.77;;;0.65;;
29214;SDS011;16252;49.816;7.964;2023-04-24T02:35:14;1.30;;;1.10;;
29214;SDS011;16252;49.816;7.964;2023-04-24T02:37:39;1.95;;;0.65;;
29214;SDS011;16252;49.816;7.964;2023-04-24T02:40:05;0.82;;;0.50;;
29214;SDS011;16252;49.816;7.964;2023-04-24T02:42:31;1.23;;;0.60;;
29214;SDS011;16252;49.816;7.964;2023-04-24T02:44:56;0.65;;;0.52;;
29214;SDS011;16252;49.816;7.964;2023-04-24T02:47:21;3.65;;;0.57;;
29214;SDS011;16252;49.816;7.964;2023-04-24T02:49:46;0.65;;;0.50;;
29214;SDS011;16252;49.816;7.964;2023-04-24T02:52:12;0.50;;;0.47;;
29214;SDS011;16252;49.816;7.964;2023-04-24T02:54:38;0.93;;;0.60;;
29214;SDS011;16252;49.816;7.964;2023-04-24T02:57:03;1.13;;;0.68;;
29214;SDS011;16252;49.816;7.964;2023-04-24T02:59:28;0.60;;;0.60;;
29214;SDS011;16252;49.816;7.964;2023-04-24T03:01:54;0.63;;;0.63;;
29214;SDS011;16252;49.816;7.964;2023-04-24T03:04:19;1.30;;;0.77;;
29214;SDS011;16252;49.816;7.964;2023-04-24T03:06:45;0.40;;;0.40;;
29214;SDS011;16252;49.816;7.964;2023-04-24T03:09:11;0.93;;;0.60;;
29214;SDS011;16252;49.816;7.964;2023-04-24T03:11:36;3.25;;;1.00;;
29214;SDS011;16252;49.816;7.964;2023-04-24T03:14:01;0.82;;;0.82;;
29214;SDS011;16252;49.816;7.964;2023-04-24T03:16:27;1.02;;;0.60;;
29214;SDS011;16252;49.816;7.964;2023-04-24T03:18:52;2.92;;;0.82;;
29214;SDS011;16252;49.816;7.964;2023-04-24T03:21:17;0.50;;;0.50;;
29214;SDS011;16252;49.816;7.964;2023-04-24T03:23:43;0.60;;;0.60;;
29214;SDS011;16252;49.816;7.964;2023-04-24T03:26:08;1.73;;;0.88;;
29214;SDS011;16252;49.816;7.964;2023-04-24T03:28:33;0.63;;;0.63;;
29214;SDS011;16252;49.816;7.964;2023-04-24T03:30:59;0.60;;;0.60;;
29214;SDS011;16252;49.816;7.964;2023-04-24T03:33:24;1.92;;;1.20;;
29214;SDS011;16252;49.816;7.964;2023-04-24T03:35:50;0.68;;;0.68;;
29214;SDS011;16252;49.816;7.964;2023-04-24T03:38:15;1.00;;;0.60;;
29214;SDS011;16252;49.816;7.964;2023-04-24T03:40:40;1.65;;;0.82;;
29214;SDS011;16252;49.816;7.964;2023-04-24T03:43:06;1.50;;;0.85;;
29214;SDS011;16252;49.816;7.964;2023-04-24T03:45:31;1.50;;;0.90;;
29214;SDS011;16252;49.816;7.964;2023-04-24T03:47:56;0.95;;;0.80;;
29214;SDS011;16252;49.816;7.964;2023-04-24T03:50:21;1.15;;;1.05;;
29214;SDS011;16252;49.816;7.964;2023-04-24T03:52:47;1.55;;;1.20;;
29214;SDS011;16252;49.816;7.964;2023-04-24T03:55:12;0.82;;;0.80;;
29214;SDS011;16252;49.816;7.964;2023-04-24T03:57:39;1.00;;;0.90;;
29214;SDS011;16252;49.816;7.964;2023-04-24T04:00:05;1.10;;;1.00;;
29214;SDS011;16252;49.816;7.964;2023-04-24T04:02:31;1.33;;;0.90;;
29214;SDS011;16252;49.816;7.964;2023-04-24T04:04:56;0.80;;;0.80;;
29214;SDS011;16252;49.816;7.964;2023-04-24T04:07:21;1.05;;;1.00;;
29214;SDS011;16252;49.816;7.964;2023-04-24T04:09:47;1.70;;;1.00;;
29214;SDS011;16252;49.816;7.964;2023-04-24T04:12:12;2.05;;;1.00;;
29214;SDS011;16252;49.816;7.964;2023-04-24T04:14:37;1.40;;;1.10;;
29214;SDS011;16252;49.816;7.964;2023-04-24T04:17:03;1.23;;;1.02;;
29214;SDS011;16252;49.816;7.964;2023-04-24T04:19:28;1.40;;;0.90;;
29214;SDS011;16252;49.816;7.964;2023-04-24T04:21:53;1.67;;;1.33;;
29214;SDS011;16252;49.816;7.964;2023-04-24T04:24:21;1.48;;;1.38;;
29214;SDS011;16252;49.816;7.964;2023-04-24T04:26:47;1.80;;;1.20;;
29214;SDS011;16252;49.816;7.964;2023-04-24T04:29:16;1.90;;;1.60;;
29214;SDS011;16252;49.816;7.964;2023-04-24T04:31:42;1.75;;;1.60;;
29214;SDS011;16252;49.816;7.964;2023-04-24T04:34:08;1.77;;;1.60;;
29214;SDS011;16252;49.816;7.964;2023-04-24T04:36:34;2.05;;;1.60;;
29214;SDS011;16252;49.816;7.964;2023-04-24T04:39:01;2.00;;;1.60;;
29214;SDS011;16252;49.816;7.964;2023-04-24T04:41:27;2.63;;;2.00;;
29214;SDS011;16252;49.816;7.964;2023-04-24T04:43:53;5.50;;;2.38;;
29214;SDS011;16252;49.816;7.964;2023-04-24T04:46:18;5.30;;;3.30;;
29214;SDS011;16252;49.816;7.964;2023-04-24T04:48:43;7.30;;;3.90;;
29214;SDS011;16252;49.816;7.964;2023-04-24T04:51:08;4.68;;;2.78;;
29214;SDS011;16252;49.816;7.964;2023-04-24T04:53:34;4.57;;;2.70;;
29214;SDS011;16252;49.816;7.964;2023-04-24T04:55:59;4.25;;;2.63;;
29214;SDS011;16252;49.816;7.964;2023-04-24T04:58:25;3.83;;;2.22;;
29214;SDS011;16252;49.816;7.964;2023-04-24T05:00:50;4.88;;;2.70;;
29214;SDS011;16252;49.816;7.964;2023-04-24T05:03:17;2.38;;;1.80;;
29214;SDS011;16252;49.816;7.964;2023-04-24T05:05:42;3.35;;;2.20;;
29214;SDS011;16252;49.816;7.964;2023-04-24T05:08:07;3.00;;;1.95;;
29214;SDS011;16252;49.816;7.964;2023-04-24T05:10:33;2.17;;;1.95;;
29214;SDS011;16252;49.816;7.964;2023-04-24T05:12:58;2.95;;;1.90;;
29214;SDS011;16252;49.816;7.964;2023-04-24T05:15:24;4.13;;;2.28;;
29214;SDS011;16252;49.816;7.964;2023-04-24T05:17:49;2.40;;;1.88;;
29214;SDS011;16252;49.816;7.964;2023-04-24T05:20:14;1.73;;;1.63;;
29214;SDS011;16252;49.816;7.964;2023-04-24T05:22:40;2.30;;;2.08;;
29214;SDS011;16252;49.816;7.964;2023-04-24T05:25:05;2.50;;;1.70;;
29214;SDS011;16252;49.816;7.964;2023-04-24T05:27:31;2.22;;;1.70;;
29214;SDS011;16252;49.816;7.964;2023-04-24T05:29:56;2.95;;;1.80;;
29214;SDS011;16252;49.816;7.964;2023-04-24T05:32:21;4.30;;;1.85;;
29214;SDS011;16252;49.816;7.964;2023-04-24T05:34:46;2.20;;;1.90;;
29214;SDS011;16252;49.816;7.964;2023-04-24T05:37:12;2.72;;;2.08;;
29214;SDS011;16252;49.816;7.964;2023-04-24T05:39:37;2.00;;;1.80;;
29214;SDS011;16252;49.816;7.964;2023-04-24T05:42:02;2.85;;;2.05;;
29214;SDS011;16252;49.816;7.964;2023-04-24T05:44:29;3.10;;;2.20;;
29214;SDS011;16252;49.816;7.964;2023-04-24T05:46:54;3.58;;;2.10;;
29214;SDS011;16252;49.816;7.964;2023-04-24T05:49:20;4.93;;;2.72;;
29214;SDS011;16252;49.816;7.964;2023-04-24T05:51:46;3.65;;;2.45;;
29214;SDS011;16252;49.816;7.964;2023-04-24T05:54:11;2.65;;;2.30;;
29214;SDS011;16252;49.816;7.964;2023-04-24T05:56:37;3.75;;;2.25;;
29214;SDS011;16252;49.816;7.964;2023-04-24T05:59:02;3.60;;;2.70;;
29214;SDS011;16252;49.816;7.964;2023-04-24T06:01:28;2.28;;;2.00;;
29214;SDS011;16252;49.816;7.964;2023-04-24T06:03:54;3.00;;;2.30;;
29214;SDS011;16252;49.816;7.964;2023-04-24T06:06:20;3.03;;;2.10;;
29214;SDS011;16252;49.816;7.964;2023-04-24T06:08:45;3.25;;;2.53;;
29214;SDS011;16252;49.816;7.964;2023-04-24T06:11:11;3.65;;;2.47;;
29214;SDS011;16252;49.816;7.964;2023-04-24T06:13:36;3.67;;;2.20;;
29214;SDS011;16252;49.816;7.964;2023-04-24T06:16:01;3.92;;;2.80;;
29214;SDS011;16252;49.816;7.964;2023-04-24T06:18:27;3.17;;;2.58;;
29214;SDS011;16252;49.816;7.964;2023-04-24T06:20:52;3.22;;;2.58;;
29214;SDS011;16252;49.816;7.964;2023-04-24T06:23:17;3.90;;;2.85;;
29214;SDS011;16252;49.816;7.964;2023-04-24T06:25:42;3.03;;;2.45;;
29214;SDS011;16252;49.816;7.964;2023-04-24T06:28:08;2.85;;;2.55;;
29214;SDS011;16252;49.816;7.964;2023-04-24T06:30:33;3.10;;;2.60;;
29214;SDS011;16252;49.816;7.964;2023-04-24T06:32:58;3.38;;;2.58;;
29214;SDS011;16252;49.816;7.964;2023-04-24T06:35:23;4.82;;;2.88;;
29214;SDS011;16252;49.816;7.964;2023-04-24T06:37:49;3.92;;;2.75;;
29214;SDS011;16252;49.816;7.964;2023-04-24T06:40:14;2.63;;;2.38;;
29214;SDS011;16252;49.816;7.964;2023-04-24T06:42:39;3.65;;;3.00;;
29214;SDS011;16252;49.816;7.964;2023-04-24T06:45:05;2.33;;;2.13;;
29214;SDS011;16252;49.816;7.964;2023-04-24T06:47:30;3.45;;;2.30;;
29214;SDS011;16252;49.816;7.964;2023-04-24T06:49:56;2.63;;;2.35;;
29214;SDS011;16252;49.816;7.964;2023-04-24T06:52:22;3.50;;;2.78;;
29214;SDS011;16252;49.816;7.964;2023-04-24T06:54:47;3.13;;;2.63;;
29214;SDS011;16252;49.816;7.964;2023-04-24T06:57:12;2.97;;;2.25;;
29214;SDS011;16252;49.816;7.964;2023-04-24T06:59:38;3.53;;;2.50;;
29214;SDS011;16252;49.816;7.964;2023-04-24T07:02:03;2.72;;;2.50;;
29214;SDS011;16252;49.816;7.964;2023-04-24T07:04:29;3.10;;;2.05;;
29214;SDS011;16252;49.816;7.964;2023-04-24T07:06:55;3.30;;;2.17;;
29214;SDS011;16252;49.816;7.964;2023-04-24T07:09:21;3.60;;;2.72;;
29214;SDS011;16252;49.816;7.964;2023-04-24T07:11:48;2.78;;;2.28;;
29214;SDS011;16252;49.816;7.964;2023-04-24T07:14:14;3.58;;;2.25;;
29214;SDS011;16252;49.816;7.964;2023-04-24T07:16:40;3.60;;;2.13;;
29214;SDS011;16252;49.816;7.964;2023-04-24T07:19:05;3.30;;;2.30;;
29214;SDS011;16252;49.816;7.964;2023-04-24T07:21:31;2.63;;;1.98;;
29214;SDS011;16252;49.816;7.964;2023-04-24T07:23:56;2.50;;;1.92;;
29214;SDS011;16252;49.816;7.964;2023-04-24T07:26:22;4.65;;;2.20;;
29214;SDS011;16252;49.816;7.964;2023-04-24T07:28:47;4.03;;;2.20;;
29214;SDS011;16252;49.816;7.964;2023-04-24T07:31:13;2.53;;;2.13;;
29214;SDS011;16252;49.816;7.964;2023-04-24T07:33:38;2.17;;;1.70;;
29214;SDS011;16252;49.816;7.964;2023-04-24T07:36:03;2.28;;;1.90;;
29214;SDS011;16252;49.816;7.964;2023-04-24T07:38:29;2.55;;;1.67;;
29214;SDS011;16252;49.816;7.964;2023-04-24T07:40:55;2.20;;;1.35;;
29214;SDS011;16252;49.816;7.964;2023-04-24T07:43:20;1.77;;;1.60;;
29214;SDS011;16252;49.816;7.964;2023-04-24T07:45:46;1.40;;;1.30;;
29214;SDS011;16252;49.816;7.964;2023-04-24T07:48:11;1.83;;;1.42;;
29214;SDS011;16252;49.816;7.964;2023-04-24T07:50:39;2.22;;;1.63;;
29214;SDS011;16252;49.816;7.964;2023-04-24T07:53:04;1.70;;;1.55;;
29214;SDS011;16252;49.816;7.964;2023-04-24T07:55:30;2.47;;;1.58;;
29214;SDS011;16252;49.816;7.964;2023-04-24T07:57:55;3.17;;;1.55;;
29214;SDS011;16252;49.816;7.964;2023-04-24T08:00:20;1.92;;;1.63;;
29214;SDS011;16252;49.816;7.964;2023-04-24T08:02:46;3.00;;;1.88;;
29214;SDS011;16252;49.816;7.964;2023-04-24T08:05:11;2.47;;;1.65;;
29214;SDS011;16252;49.816;7.964;2023-04-24T08:07:36;1.98;;;1.60;;
29214;SDS011;16252;49.816;7.964;2023-04-24T08:10:03;2.83;;;1.77;;
29214;SDS011;16252;49.816;7.964;2023-04-24T08:12:28;2.55;;;1.90;;
29214;SDS011;16252;49.816;7.964;2023-04-24T08:14:54;3.72;;;2.08;;
29214;SDS011;16252;49.816;7.964;2023-04-24T08:17:19;3.10;;;2.10;;
29214;SDS011;16252;49.816;7.964;2023-04-24T08:19:45;5.30;;;1.92;;
29214;SDS011;16252;49.816;7.964;2023-04-24T08:22:13;2.42;;;1.88;;
29214;SDS011;16252;49.816;7.964;2023-04-24T08:24:40;3.13;;;2.70;;
29214;SDS011;16252;49.816;7.964;2023-04-24T08:27:05;3.03;;;2.42;;
29214;SDS011;16252;49.816;7.964;2023-04-24T08:29:30;3.85;;;3.10;;
29214;SDS011;16252;49.816;7.964;2023-04-24T08:31:56;4.50;;;3.40;;
29214;SDS011;16252;49.816;7.964;2023-04-24T08:34:22;5.28;;;2.83;;
29214;SDS011;16252;49.816;7.964;2023-04-24T08:36:47;4.43;;;3.00;;
29214;SDS011;16252;49.816;7.964;2023-04-24T08:39:13;2.75;;;2.42;;
29214;SDS011;16252;49.816;7.964;2023-04-24T08:41:39;2.80;;;2.50;;
29214;SDS011;16252;49.816;7.964;2023-04-24T08:44:07;3.30;;;2.30;;
29214;SDS011;16252;49.816;7.964;2023-04-24T08:46:34;4.35;;;2.22;;
29214;SDS011;16252;49.816;7.964;2023-04-24T08:49:00;2.03;;;1.83;;
29214;SDS011;16252;49.816;7.964;2023-04-24T08:51:27;2.35;;;2.15;;
29214;SDS011;16252;49.816;7.964;2023-04-24T08:53:53;5.05;;;2.25;;
29214;SDS011;16252;49.816;7.964;2023-04-24T08:56:20;2.15;;;1.95;;
29214;SDS011;16252;49.816;7.964;2023-04-24T08:58:48;2.50;;;1.90;;
29214;SDS011;16252;49.816;7.964;2023-04-24T09:01:14;2.70;;;2.25;;
29214;SDS011;16252;49.816;7.964;2023-04-24T09:03:40;2.17;;;1.98;;
29214;SDS011;16252;49.816;7.964;2023-04-24T09:06:05;2.20;;;2.00;;
29214;SDS011;16252;49.816;7.964;2023-04-24T09:08:33;3.92;;;2.00;;
29214;SDS011;16252;49.816;7.964;2023-04-24T09:10:58;2.22;;;1.55;;
29214;SDS011;16252;49.816;7.964;2023-04-24T09:13:26;2.65;;;1.95;;
29214;SDS011;16252;49.816;7.964;2023-04-24T09:15:52;2.55;;;1.55;;
29214;SDS011;16252;49.816;7.964;2023-04-24T09:18:18;1.95;;;1.30;;
29214;SDS011;16252;49.816;7.964;2023-04-24T09:20:56;1.92;;;1.33;;
29214;SDS011;16252;49.816;7.964;2023-04-24T09:23:25;1.65;;;1.52;;
29214;SDS011;16252;49.816;7.964;2023-04-24T09:25:54;2.92;;;1.90;;
29214;SDS011;16252;49.816;7.964;2023-04-24T09:28:24;1.42;;;1.33;;
29214;SDS011;16252;49.816;7.964;2023-04-24T09:31:01;2.75;;;1.50;;
29214;SDS011;16252;49.816;7.964;2023-04-24T09:33:57;2.25;;;1.27;;
29214;SDS011;16252;49.816;7.964;2023-04-24T09:36:29;1.52;;;1.38;;
29214;SDS011;16252;49.816;7.964;2023-04-24T09:38:59;1.30;;;1.20;;
29214;SDS011;16252;49.816;7.964;2023-04-24T09:41:27;1.70;;;1.40;;
29214;SDS011;16252;49.816;7.964;2023-04-24T09:43:56;2.42;;;1.13;;
29214;SDS011;16252;49.816;7.964;2023-04-24T09:46:29;4.28;;;1.58;;
29214;SDS011;16252;49.816;7.964;2023-04-24T09:48:55;2.42;;;1.50;;
29214;SDS011;16252;49.816;7.964;2023-04-24T09:51:32;3.92;;;1.50;;
29214;SDS011;16252;49.816;7.964;2023-04-24T09:54:00;2.08;;;1.60;;
29214;SDS011;16252;49.816;7.964;2023-04-24T09:56:26;1.77;;;1.42;;
29214;SDS011;16252;49.816;7.964;2023-04-24T09:58:51;2.03;;;1.48;;
29214;SDS011;16252;49.816;7.964;2023-04-24T10:01:28;2.58;;;1.90;;
29214;SDS011;16252;49.816;7.964;2023-04-24T10:03:55;2.53;;;1.60;;
29214;SDS011;16252;49.816;7.964;2023-04-24T10:06:20;1.30;;;1.20;;
29214;SDS011;16252;49.816;7.964;2023-04-24T10:08:46;1.38;;;1.10;;
29214;SDS011;16252;49.816;7.964;2023-04-24T10:11:13;1.40;;;1.30;;
29214;SDS011;16252;49.816;7.964;2023-04-24T10:13:38;1.60;;;1.17;;
29214;SDS011;16252;49.816;7.964;2023-04-24T10:16:05;1.55;;;1.27;;
29214;SDS011;16252;49.816;7.964;2023-04-24T10:18:32;1.80;;;1.30;;
29214;SDS011;16252;49.816;7.964;2023-04-24T10:20:59;1.42;;;1.20;;
29214;SDS011;16252;49.816;7.964;2023-04-24T10:23:25;2.05;;;1.15;;
29214;SDS011;16252;49.816;7.964;2023-04-24T10:25:50;1.30;;;1.20;;
29214;SDS011;16252;49.816;7.964;2023-04-24T10:28:16;2.67;;;1.45;;
29214;SDS011;16252;49.816;7.964;2023-04-24T10:30:43;2.83;;;1.40;;
29214;SDS011;16252;49.816;7.964;2023-04-24T10:33:10;2.05;;;1.30;;
29214;SDS011;16252;49.816;7.964;2023-04-24T10:35:38;1.27;;;1.00;;
29214;SDS011;16252;49.816;7.964;2023-04-24T10:38:08;2.67;;;1.25;;
29214;SDS011;16252;49.816;7.964;2023-04-24T10:40:37;1.27;;;1.17;;
29214;SDS011;16252;49.816;7.964;2023-04-24T10:43:07;2.75;;;1.40;;
29214;SDS011;16252;49.816;7.964;2023-04-24T10:45:35;3.10;;;1.42;;
29214;SDS011;16252;49.816;7.964;2023-04-24T10:48:02;3.00;;;1.50;;
29214;SDS011;16252;49.816;7.964;2023-04-24T10:50:45;1.73;;;1.45;;
29214;SDS011;16252;49.816;7.964;2023-04-24T10:53:13;2.25;;;1.42;;
29214;SDS011;16252;49.816;7.964;2023-04-24T10:55:44;1.95;;;1.60;;
29214;SDS011;16252;49.816;7.964;2023-04-24T10:58:14;2.33;;;1.63;;
29214;SDS011;16252;49.816;7.964;2023-04-24T11:00:41;2.58;;;1.45;;
29214;SDS011;16252;49.816;7.964;2023-04-24T11:03:22;2.50;;;1.83;;
29214;SDS011;16252;49.816;7.964;2023-04-24T11:08:36;1.92;;;1.55;;
29214;SDS011;16252;49.816;7.964;2023-04-24T11:11:07;1.83;;;1.63;;
29214;SDS011;16252;49.816;7.964;2023-04-24T11:16:29;2.17;;;1.60;;
29214;SDS011;16252;49.816;7.964;2023-04-24T11:19:10;1.92;;;1.70;;
29214;SDS011;16252;49.816;7.964;2023-04-24T11:21:43;2.33;;;2.00;;
29214;SDS011;16252;49.816;7.964;2023-04-24T11:24:28;2.30;;;1.42;;
29214;SDS011;16252;49.816;7.964;2023-04-24T11:26:58;1.38;;;1.27;;
29214;SDS011;16252;49.816;7.964;2023-04-24T11:29:39;1.58;;;1.20;;
29214;SDS011;16252;49.816;7.964;2023-04-24T11:32:14;1.88;;;1.30;;
29214;SDS011;16252;49.816;7.964;2023-04-24T11:34:40;2.20;;;1.48;;
29214;SDS011;16252;49.816;7.964;2023-04-24T11:37:06;1.17;;;1.00;;
29214;SDS011;16252;49.816;7.964;2023-04-24T11:39:36;2.83;;;1.50;;
29214;SDS011;16252;49.816;7.964;2023-04-24T11:42:02;2.15;;;1.83;;
29214;SDS011;16252;49.816;7.964;2023-04-24T11:44:28;1.90;;;1.63;;
29214;SDS011;16252;49.816;7.964;2023-04-24T11:46:55;1.95;;;1.67;;
29214;SDS011;16252;49.816;7.964;2023-04-24T11:49:21;3.00;;;1.80;;
29214;SDS011;16252;49.816;7.964;2023-04-24T11:51:46;2.17;;;1.90;;
29214;SDS011;16252;49.816;7.964;2023-04-24T11:54:11;2.35;;;1.67;;
29214;SDS011;16252;49.816;7.964;2023-04-24T11:56:37;2.45;;;1.73;;
29214;SDS011;16252;49.816;7.964;2023-04-24T11:59:03;4.22;;;1.90;;
29214;SDS011;16252;49.816;7.964;2023-04-24T12:01:29;3.47;;;1.80;;
29214;SDS011;16252;49.816;7.964;2023-04-24T12:03:59;2.08;;;1.80;;
29214;SDS011;16252;49.816;7.964;2023-04-24T12:06:24;2.83;;;1.70;;
29214;SDS011;16252;49.816;7.964;2023-04-24T12:08:50;1.90;;;1.73;;
29214;SDS011;16252;49.816;7.964;2023-04-24T12:11:17;3.03;;;2.17;;
29214;SDS011;16252;49.816;7.964;2023-04-24T12:13:43;2.90;;;2.00;;
29214;SDS011;16252;49.816;7.964;2023-04-24T12:16:09;3.97;;;1.90;;
29214;SDS011;16252;49.816;7.964;2023-04-24T12:18:34;3.10;;;1.65;;
29214;SDS011;16252;49.816;7.964;2023-04-24T12:21:19;2.63;;;1.98;;
29214;SDS011;16252;49.816;7.964;2023-04-24T12:23:45;2.85;;;1.98;;
29214;SDS011;16252;49.816;7.964;2023-04-24T12:26:12;3.53;;;2.03;;
29214;SDS011;16252;49.816;7.964;2023-04-24T12:28:41;2.83;;;1.85;;
29214;SDS011;16252;49.816;7.964;2023-04-24T12:31:06;2.17;;;1.98;;
29214;SDS011;16252;49.816;7.964;2023-04-24T12:33:33;2.22;;;1.88;;
29214;SDS011;16252;49.816;7.964;2023-04-24T12:35:59;2.28;;;2.08;;
29214;SDS011;16252;49.816;7.964;2023-04-24T12:38:26;2.25;;;1.70;;
29214;SDS011;16252;49.816;7.964;2023-04-24T12:41:05;3.05;;;1.92;;
29214;SDS011;16252;49.816;7.964;2023-04-24T12:43:35;2.00;;;1.80;;
29214;SDS011;16252;49.816;7.964;2023-04-24T12:46:00;4.07;;;1.83;;
29214;SDS011;16252;49.816;7.964;2023-04-24T12:48:26;6.60;;;3.03;;
29214;SDS011;16252;49.816;7.964;2023-04-24T12:50:52;3.00;;;2.42;;
29214;SDS011;16252;49.816;7.964;2023-04-24T12:53:17;3.30;;;2.20;;
29214;SDS011;16252;49.816;7.964;2023-04-24T12:55:43;3.00;;;2.10;;
29214;SDS011;16252;49.816;7.964;2023-04-24T12:58:09;4.25;;;2.33;;
29214;SDS011;16252;49.816;7.964;2023-04-24T13:00:34;3.15;;;2.35;;
29214;SDS011;16252;49.816;7.964;2023-04-24T13:03:00;2.92;;;2.30;;
29214;SDS011;16252;49.816;7.964;2023-04-24T13:05:26;2.15;;;1.95;;
29214;SDS011;16252;49.816;7.964;2023-04-24T13:07:51;2.83;;;2.30;;
29214;SDS011;16252;49.816;7.964;2023-04-24T13:10:16;2.15;;;1.92;;
29214;SDS011;16252;49.816;7.964;2023-04-24T13:12:42;3.45;;;2.10;;
29214;SDS011;16252;49.816;7.964;2023-04-24T13:15:10;2.47;;;1.80;;
29214;SDS011;16252;49.816;7.964;2023-04-24T13:17:35;2.55;;;2.08;;
29214;SDS011;16252;49.816;7.964;2023-04-24T13:20:00;3.03;;;2.17;;
29214;SDS011;16252;49.816;7.964;2023-04-24T13:22:26;2.35;;;2.10;;
29214;SDS011;16252;49.816;7.964;2023-04-24T13:24:52;2.75;;;2.00;;
29214;SDS011;16252;49.816;7.964;2023-04-24T13:27:17;2.55;;;1.73;;
29214;SDS011;16252;49.816;7.964;2023-04-24T13:29:43;2.38;;;1.75;;
29214;SDS011;16252;49.816;7.964;2023-04-24T13:32:08;2.63;;;2.20;;
29214;SDS011;16252;49.816;7.964;2023-04-24T13:34:34;3.50;;;1.98;;
29214;SDS011;16252;49.816;7.964;2023-04-24T13:37:00;4.20;;;1.98;;
29214;SDS011;16252;49.816;7.964;2023-04-24T13:39:26;2.63;;;2.00;;
29214;SDS011;16252;49.816;7.964;2023-04-24T13:41:51;2.00;;;1.70;;
29214;SDS011;16252;49.816;7.964;2023-04-24T13:44:18;2.97;;;1.90;;
29214;SDS011;16252;49.816;7.964;2023-04-24T13:46:45;2.92;;;2.03;;
29214;SDS011;16252;49.816;7.964;2023-04-24T13:49:12;2.80;;;2.03;;
29214;SDS011;16252;49.816;7.964;2023-04-24T13:51:38;2.65;;;2.20;;
29214;SDS011;16252;49.816;7.964;2023-04-24T13:54:05;1.98;;;1.88;;
29214;SDS011;16252;49.816;7.964;2023-04-24T13:56:30;2.25;;;1.80;;
29214;SDS011;16252;49.816;7.964;2023-04-24T13:58:56;5.03;;;3.63;;
29214;SDS011;16252;49.816;7.964;2023-04-24T14:01:21;6.47;;;4.20;;
29214;SDS011;16252;49.816;7.964;2023-04-24T14:03:50;5.45;;;4.13;;
29214;SDS011;16252;49.816;7.964;2023-04-24T14:06:16;4.75;;;2.72;;
29214;SDS011;16252;49.816;7.964;2023-04-24T14:08:42;4.05;;;2.63;;
29214;SDS011;16252;49.816;7.964;2023-04-24T14:11:07;2.50;;;2.15;;
29214;SDS011;16252;49.816;7.964;2023-04-24T14:13:32;2.88;;;2.38;;
29214;SDS011;16252;49.816;7.964;2023-04-24T14:15:58;2.45;;;2.05;;
29214;SDS011;16252;49.816;7.964;2023-04-24T14:18:23;3.67;;;2.58;;
29214;SDS011;16252;49.816;7.964;2023-04-24T14:20:48;3.15;;;2.22;;
29214;SDS011;16252;49.816;7.964;2023-04-24T14:23:14;2.63;;;2.15;;
29214;SDS011;16252;49.816;7.964;2023-04-24T14:25:39;3.75;;;2.50;;
29214;SDS011;16252;49.816;7.964;2023-04-24T14:28:05;2.83;;;2.17;;
29214;SDS011;16252;49.816;7.964;2023-04-24T14:30:31;2.63;;;1.98;;
29214;SDS011;16252;49.816;7.964;2023-04-24T14:32:56;2.28;;;1.90;;
29214;SDS011;16252;49.816;7.964;2023-04-24T14:35:21;3.47;;;2.70;;
29214;SDS011;16252;49.816;7.964;2023-04-24T14:37:47;4.32;;;3.70;;
29214;SDS011;16252;49.816;7.964;2023-04-24T14:40:13;2.75;;;2.40;;
29214;SDS011;16252;49.816;7.964;2023-04-24T14:42:38;2.70;;;2.05;;
29214;SDS011;16252;49.816;7.964;2023-04-24T14:45:04;6.53;;;2.50;;
29214;SDS011;16252;49.816;7.964;2023-04-24T14:47:29;2.53;;;2.33;;
29214;SDS011;16252;49.816;7.964;2023-04-24T14:49:55;2.70;;;2.50;;